sensor_id;sensor_type;location;lat;lon;timestamp;P1;durP1;ratioP1;P2;durP2;ratioP2
6953;SDS011;3516;47.980;8.808;2023-04-30T07:56:03;3.67;;;3.45;;
6953;SDS011;3516;47.980;8.808;2023-04-30T07:58:30;2.97;;;2.80;;
6953;SDS011;3516;47.980;8.808;2023-04-30T08:00:56;3.80;;;3.50;;
6953;SDS011;3516;47.980;8.808;2023-04-30T08:03:23;3.97;;;3.67;;
6953;SDS011;3516;47.980;8.808;2023-04-30T08:05:50;3.72;;;3.45;;
6953;SDS011;3516;47.980;8.808;2023-04-30T08:08:17;4.10;;;3.80;;
6953;SDS011;3516;47.980;8.808;2023-04-30T08:10:44;3.15;;;2.95;;
6953;SDS011;3516;47.980;8.808;2023-04-30T08:13:12;2.70;;;2.60;;
6953;SDS011;3516;47.980;8.808;2023-04-30T08:15:39;2.30;;;2.20;;
6953;SDS011;3516;47.980;8.808;2023-04-30T08:18:06;2.78;;;2.67;;
6953;SDS011;3516;47.980;8.808;2023-04-30T08:20:33;2.70;;;2.50;;
6953;SDS011;3516;47.980;8.808;2023-04-30T08:23:00;2.40;;;2.30;;
6953;SDS011;3516;47.980;8.808;2023-04-30T08:25:27;3.33;;;3.13;;
6953;SDS011;3516;47.980;8.808;2023-04-30T08:27:55;2.63;;;2.42;;
6953;SDS011;3516;47.980;8.808;2023-04-30T08:30:23;2.95;;;2.75;;
6953;SDS011;3516;47.980;8.808;2023-04-30T08:32:50;2.85;;;2.70;;
6953;SDS011;3516;47.980;8.808;2023-04-30T08:35:17;2.63;;;2.53;;
6953;SDS011;3516;47.980;8.808;2023-04-30T08:37:43;2.80;;;2.65;;
6953;SDS011;3516;47.980;8.808;2023-04-30T08:40:10;3.10;;;2.90;;
6953;SDS011;3516;47.980;8.808;2023-04-30T08:42:39;2.50;;;2.40;;
6953;SDS011;3516;47.980;8.808;2023-04-30T08:45:11;3.22;;;3.03;;
6953;SDS011;3516;47.980;8.808;2023-04-30T08:47:39;2.55;;;2.45;;
6953;SDS011;3516;47.980;8.808;2023-04-30T08:50:07;3.30;;;3.10;;
6953;SDS011;3516;47.980;8.808;2023-04-30T08:52:34;4.43;;;4.03;;
6953;SDS011;3516;47.980;8.808;2023-04-30T08:55:05;2.97;;;2.78;;
6953;SDS011;3516;47.980;8.808;2023-04-30T08:57:33;3.53;;;3.33;;
6953;SDS011;3516;47.980;8.808;2023-04-30T09:00:00;3.10;;;2.90;;
6953;SDS011;3516;47.980;8.808;2023-04-30T09:02:27;3.20;;;3.00;;
6953;SDS011;3516;47.980;8.808;2023-04-30T09:04:57;2.85;;;2.70;;
6953;SDS011;3516;47.980;8.808;2023-04-30T09:07:25;3.50;;;3.30;;
6953;SDS011;3516;47.980;8.808;2023-04-30T09:09:53;3.20;;;3.00;;
6953;SDS011;3516;47.980;8.808;2023-04-30T09:12:19;2.97;;;2.78;;
6953;SDS011;3516;47.980;8.808;2023-04-30T09:14:59;3.70;;;3.50;;
6953;SDS011;3516;47.980;8.808;2023-04-30T09:17:27;2.92;;;2.83;;
6953;SDS011;3516;47.980;8.808;2023-04-30T09:19:54;3.17;;;2.97;;
6953;SDS011;3516;47.980;8.808;2023-04-30T09:22:34;2.50;;;2.30;;
6953;SDS011;3516;47.980;8.808;2023-04-30T09:25:02;3.33;;;3.03;;
6953;SDS011;3516;47.980;8.808;2023-04-30T09:27:28;2.97;;;2.78;;
6953;SDS011;3516;47.980;8.808;2023-04-30T09:29:55;2.55;;;2.45;;
6953;SDS011;3516;47.980;8.808;2023-04-30T09:32:22;2.22;;;2.13;;
6953;SDS011;3516;47.980;8.808;2023-04-30T09:34:49;2.92;;;2.72;;
6953;SDS011;3516;47.980;8.808;2023-04-30T09:37:17;2.80;;;2.65;;
6953;SDS011;3516;47.980;8.808;2023-04-30T09:39:47;2.45;;;2.35;;
6953;SDS011;3516;47.980;8.808;2023-04-30T09:42:15;4.57;;;3.00;;
6953;SDS011;3516;47.980;8.808;2023-04-30T09:44:43;3.53;;;3.30;;
6953;SDS011;3516;47.980;8.808;2023-04-30T09:47:10;2.67;;;2.58;;
6953;SDS011;3516;47.980;8.808;2023-04-30T09:49:39;2.28;;;2.17;;
6953;SDS011;3516;47.980;8.808;2023-04-30T09:52:07;2.53;;;2.33;;
6953;SDS011;3516;47.980;8.808;2023-04-30T09:54:37;2.33;;;2.22;;
6953;SDS011;3516;47.980;8.808;2023-04-30T09:57:04;3.10;;;2.80;;
6953;SDS011;3516;47.980;8.808;2023-04-30T09:59:34;2.60;;;2.50;;
6953;SDS011;3516;47.980;8.808;2023-04-30T10:02:02;2.97;;;2.42;;
6953;SDS011;3516;47.980;8.808;2023-04-30T10:04:32;3.50;;;2.28;;
6953;SDS011;3516;47.980;8.808;2023-04-30T10:07:00;2.97;;;2.10;;
6953;SDS011;3516;47.980;8.808;2023-04-30T10:09:31;2.25;;;2.15;;
6953;SDS011;3516;47.980;8.808;2023-04-30T10:12:05;2.38;;;2.17;;
6953;SDS011;3516;47.980;8.808;2023-04-30T10:14:35;2.30;;;2.20;;
6953;SDS011;3516;47.980;8.808;2023-04-30T10:17:05;2.25;;;2.15;;
6953;SDS011;3516;47.980;8.808;2023-04-30T10:19:37;2.08;;;1.73;;
6953;SDS011;3516;47.980;8.808;2023-04-30T10:22:07;2.42;;;2.33;;
6953;SDS011;3516;47.980;8.808;2023-04-30T11:43:23;1.67;;;1.58;;
6953;SDS011;3516;47.980;8.808;2023-04-30T11:46:00;2.35;;;2.20;;
6953;SDS011;3516;47.980;8.808;2023-04-30T11:48:33;2.33;;;1.90;;
6953;SDS011;3516;47.980;8.808;2023-04-30T11:51:13;2.00;;;1.90;;
6953;SDS011;3516;47.980;8.808;2023-04-30T11:53:40;2.22;;;2.00;;
6953;SDS011;3516;47.980;8.808;2023-04-30T11:56:08;3.53;;;1.70;;
6953;SDS011;3516;47.980;8.808;2023-04-30T11:58:37;2.20;;;2.10;;
6953;SDS011;3516;47.980;8.808;2023-04-30T12:01:05;1.45;;;1.45;;
6953;SDS011;3516;47.980;8.808;2023-04-30T12:03:39;1.63;;;1.63;;
6953;SDS011;3516;47.980;8.808;2023-04-30T12:06:08;1.80;;;1.70;;
6953;SDS011;3516;47.980;8.808;2023-04-30T12:08:36;1.80;;;1.73;;
6953;SDS011;3516;47.980;8.808;2023-04-30T12:11:17;2.17;;;1.80;;
6953;SDS011;3516;47.980;8.808;2023-04-30T12:13:50;1.80;;;1.70;;
6953;SDS011;3516;47.980;8.808;2023-04-30T12:16:18;1.63;;;1.63;;
6953;SDS011;3516;47.980;8.808;2023-04-30T12:18:46;1.52;;;1.52;;
6953;SDS011;3516;47.980;8.808;2023-04-30T12:21:13;1.90;;;1.80;;
6953;SDS011;3516;47.980;8.808;2023-04-30T12:23:41;2.05;;;1.75;;
6953;SDS011;3516;47.980;8.808;2023-04-30T12:26:12;1.75;;;1.65;;
6953;SDS011;3516;47.980;8.808;2023-04-30T12:28:39;1.40;;;1.40;;
6953;SDS011;3516;47.980;8.808;2023-04-30T12:31:07;2.30;;;2.17;;
6953;SDS011;3516;47.980;8.808;2023-04-30T12:33:34;3.55;;;1.60;;
6953;SDS011;3516;47.980;8.808;2023-04-30T12:36:01;1.48;;;1.45;;
6953;SDS011;3516;47.980;8.808;2023-04-30T12:38:28;1.77;;;1.67;;
6953;SDS011;3516;47.980;8.808;2023-04-30T12:40:55;1.70;;;1.60;;
6953;SDS011;3516;47.980;8.808;2023-04-30T12:43:22;2.42;;;2.22;;
6953;SDS011;3516;47.980;8.808;2023-04-30T12:45:50;1.60;;;1.60;;
6953;SDS011;3516;47.980;8.808;2023-04-30T12:48:19;1.42;;;1.33;;
6953;SDS011;3516;47.980;8.808;2023-04-30T12:50:49;1.83;;;1.70;;
6953;SDS011;3516;47.980;8.808;2023-04-30T12:53:18;1.60;;;1.50;;
6953;SDS011;3516;47.980;8.808;2023-04-30T12:58:34;1.95;;;1.85;;
6953;SDS011;3516;47.980;8.808;2023-04-30T13:01:01;1.50;;;1.50;;
6953;SDS011;3516;47.980;8.808;2023-04-30T13:03:29;1.50;;;1.40;;
6953;SDS011;3516;47.980;8.808;2023-04-30T13:05:55;1.55;;;1.50;;
6953;SDS011;3516;47.980;8.808;2023-04-30T13:08:23;1.30;;;1.30;;
6953;SDS011;3516;47.980;8.808;2023-04-30T13:10:50;1.50;;;1.40;;
6953;SDS011;3516;47.980;8.808;2023-04-30T13:13:17;1.40;;;1.40;;
6953;SDS011;3516;47.980;8.808;2023-04-30T13:15:44;2.00;;;2.00;;
6953;SDS011;3516;47.980;8.808;2023-04-30T13:18:11;2.00;;;1.90;;
6953;SDS011;3516;47.980;8.808;2023-04-30T13:20:41;1.92;;;1.58;;
6953;SDS011;3516;47.980;8.808;2023-04-30T13:23:09;1.70;;;1.70;;
6953;SDS011;3516;47.980;8.808;2023-04-30T13:25:37;1.80;;;1.70;;
6953;SDS011;3516;47.980;8.808;2023-04-30T13:28:05;1.88;;;1.77;;
6953;SDS011;3516;47.980;8.808;2023-04-30T13:30:32;1.70;;;1.70;;
6953;SDS011;3516;47.980;8.808;2023-04-30T13:32:59;1.63;;;1.52;;
6953;SDS011;3516;47.980;8.808;2023-04-30T13:35:26;2.10;;;1.90;;
6953;SDS011;3516;47.980;8.808;2023-04-30T13:37:57;2.10;;;2.00;;
6953;SDS011;3516;47.980;8.808;2023-04-30T13:40:24;1.80;;;1.80;;
6953;SDS011;3516;47.980;8.808;2023-04-30T13:42:51;1.80;;;1.70;;
6953;SDS011;3516;47.980;8.808;2023-04-30T13:45:18;2.15;;;2.05;;
6953;SDS011;3516;47.980;8.808;2023-04-30T13:47:44;1.80;;;1.70;;
6953;SDS011;3516;47.980;8.808;2023-04-30T13:50:11;2.00;;;1.90;;
6953;SDS011;3516;47.980;8.808;2023-04-30T13:52:38;1.45;;;1.35;;
6953;SDS011;3516;47.980;8.808;2023-04-30T13:55:07;1.73;;;1.70;;
6953;SDS011;3516;47.980;8.808;2023-04-30T13:57:34;1.75;;;1.65;;
6953;SDS011;3516;47.980;8.808;2023-04-30T14:00:02;1.70;;;1.60;;
6953;SDS011;3516;47.980;8.808;2023-04-30T14:02:30;1.70;;;1.60;;
6953;SDS011;3516;47.980;8.808;2023-04-30T14:04:56;1.65;;;1.63;;
6953;SDS011;3516;47.980;8.808;2023-04-30T14:07:24;3.17;;;1.80;;
6953;SDS011;3516;47.980;8.808;2023-04-30T14:09:50;2.00;;;1.90;;
6953;SDS011;3516;47.980;8.808;2023-04-30T14:12:18;1.52;;;1.52;;
6953;SDS011;3516;47.980;8.808;2023-04-30T14:14:48;1.30;;;1.30;;
6953;SDS011;3516;47.980;8.808;2023-04-30T14:17:14;3.15;;;1.70;;
6953;SDS011;3516;47.980;8.808;2023-04-30T14:19:41;1.60;;;1.60;;
6953;SDS011;3516;47.980;8.808;2023-04-30T14:22:08;1.45;;;1.35;;
6953;SDS011;3516;47.980;8.808;2023-04-30T14:24:34;1.80;;;1.70;;
6953;SDS011;3516;47.980;8.808;2023-04-30T14:27:01;1.80;;;1.70;;
6953;SDS011;3516;47.980;8.808;2023-04-30T14:29:30;2.58;;;1.58;;
6953;SDS011;3516;47.980;8.808;2023-04-30T14:31:56;1.48;;;1.48;;
6953;SDS011;3516;47.980;8.808;2023-04-30T14:34:23;1.33;;;1.33;;
6953;SDS011;3516;47.980;8.808;2023-04-30T14:36:51;1.45;;;1.45;;
6953;SDS011;3516;47.980;8.808;2023-04-30T14:39:18;1.58;;;1.30;;
6953;SDS011;3516;47.980;8.808;2023-04-30T14:41:45;1.40;;;1.40;;
6953;SDS011;3516;47.980;8.808;2023-04-30T14:44:11;1.83;;;1.73;;
6953;SDS011;3516;47.980;8.808;2023-04-30T14:46:39;1.75;;;1.55;;
6953;SDS011;3516;47.980;8.808;2023-04-30T14:49:06;1.52;;;1.52;;
6953;SDS011;3516;47.980;8.808;2023-04-30T14:51:33;2.10;;;1.40;;
6953;SDS011;3516;47.980;8.808;2023-04-30T14:54:00;2.40;;;1.88;;
6953;SDS011;3516;47.980;8.808;2023-04-30T14:56:27;1.77;;;1.67;;
6953;SDS011;3516;47.980;8.808;2023-04-30T14:58:54;1.70;;;1.60;;
6953;SDS011;3516;47.980;8.808;2023-04-30T15:01:21;1.77;;;1.70;;
6953;SDS011;3516;47.980;8.808;2023-04-30T15:03:49;1.45;;;1.40;;
6953;SDS011;3516;47.980;8.808;2023-04-30T15:06:17;1.30;;;1.30;;
6953;SDS011;3516;47.980;8.808;2023-04-30T15:08:43;1.92;;;1.77;;
6953;SDS011;3516;47.980;8.808;2023-04-30T15:11:10;1.45;;;1.40;;
6953;SDS011;3516;47.980;8.808;2023-04-30T15:13:37;1.67;;;1.67;;
6953;SDS011;3516;47.980;8.808;2023-04-30T15:16:05;2.78;;;1.60;;
6953;SDS011;3516;47.980;8.808;2023-04-30T15:18:32;1.52;;;1.42;;
6953;SDS011;3516;47.980;8.808;2023-04-30T15:21:00;1.50;;;1.50;;
6953;SDS011;3516;47.980;8.808;2023-04-30T15:23:27;1.88;;;1.77;;
6953;SDS011;3516;47.980;8.808;2023-04-30T15:25:55;1.55;;;1.55;;
6953;SDS011;3516;47.980;8.808;2023-04-30T15:28:22;1.70;;;1.70;;
6953;SDS011;3516;47.980;8.808;2023-04-30T15:30:49;1.65;;;1.55;;
6953;SDS011;3516;47.980;8.808;2023-04-30T15:33:16;1.73;;;1.67;;
6953;SDS011;3516;47.980;8.808;2023-04-30T15:35:43;1.60;;;1.50;;
6953;SDS011;3516;47.980;8.808;2023-04-30T15:38:12;1.50;;;1.50;;
6953;SDS011;3516;47.980;8.808;2023-04-30T15:40:39;1.40;;;1.40;;
6953;SDS011;3516;47.980;8.808;2023-04-30T15:43:06;1.80;;;1.77;;
6953;SDS011;3516;47.980;8.808;2023-04-30T15:45:33;1.55;;;1.45;;
6953;SDS011;3516;47.980;8.808;2023-04-30T15:47:59;1.52;;;1.48;;
6953;SDS011;3516;47.980;8.808;2023-04-30T15:50:26;1.58;;;1.50;;
6953;SDS011;3516;47.980;8.808;2023-04-30T15:52:53;1.15;;;1.15;;
6953;SDS011;3516;47.980;8.808;2023-04-30T15:55:22;1.55;;;1.55;;
6953;SDS011;3516;47.980;8.808;2023-04-30T15:57:49;1.92;;;1.83;;
6953;SDS011;3516;47.980;8.808;2023-04-30T16:00:16;1.50;;;1.50;;
6953;SDS011;3516;47.980;8.808;2023-04-30T16:02:43;1.50;;;1.50;;
6953;SDS011;3516;47.980;8.808;2023-04-30T16:05:09;1.40;;;1.38;;
6953;SDS011;3516;47.980;8.808;2023-04-30T16:07:36;1.70;;;1.60;;
6953;SDS011;3516;47.980;8.808;2023-04-30T16:10:03;2.03;;;1.92;;
6953;SDS011;3516;47.980;8.808;2023-04-30T16:12:33;1.70;;;1.70;;
6953;SDS011;3516;47.980;8.808;2023-04-30T16:15:00;1.90;;;1.90;;
6953;SDS011;3516;47.980;8.808;2023-04-30T16:17:28;1.63;;;1.63;;
6953;SDS011;3516;47.980;8.808;2023-04-30T16:19:56;1.67;;;1.58;;
6953;SDS011;3516;47.980;8.808;2023-04-30T16:22:23;1.70;;;1.70;;
6953;SDS011;3516;47.980;8.808;2023-04-30T16:24:52;1.65;;;1.63;;
6953;SDS011;3516;47.980;8.808;2023-04-30T16:27:18;1.65;;;1.60;;
6953;SDS011;3516;47.980;8.808;2023-04-30T16:29:46;1.55;;;1.50;;
6953;SDS011;3516;47.980;8.808;2023-04-30T16:32:13;1.35;;;1.35;;
6953;SDS011;3516;47.980;8.808;2023-04-30T16:34:40;1.27;;;1.27;;
6953;SDS011;3516;47.980;8.808;2023-04-30T16:37:07;1.33;;;1.33;;
6953;SDS011;3516;47.980;8.808;2023-04-30T16:39:34;1.30;;;1.30;;
6953;SDS011;3516;47.980;8.808;2023-04-30T16:42:01;1.30;;;1.30;;
6953;SDS011;3516;47.980;8.808;2023-04-30T16:44:27;2.08;;;1.40;;
6953;SDS011;3516;47.980;8.808;2023-04-30T16:46:55;1.45;;;1.45;;
6953;SDS011;3516;47.980;8.808;2023-04-30T16:49:23;1.60;;;1.60;;
6953;SDS011;3516;47.980;8.808;2023-04-30T16:51:50;1.50;;;1.50;;
6953;SDS011;3516;47.980;8.808;2023-04-30T16:54:17;3.42;;;1.65;;
6953;SDS011;3516;47.980;8.808;2023-04-30T16:56:44;1.33;;;1.25;;
6953;SDS011;3516;47.980;8.808;2023-04-30T16:59:10;2.03;;;1.98;;
6953;SDS011;3516;47.980;8.808;2023-04-30T17:01:37;1.88;;;1.88;;
6953;SDS011;3516;47.980;8.808;2023-04-30T17:04:05;1.48;;;1.48;;
6953;SDS011;3516;47.980;8.808;2023-04-30T17:06:32;1.88;;;1.88;;
6953;SDS011;3516;47.980;8.808;2023-04-30T17:08:59;1.80;;;1.70;;
6953;SDS011;3516;47.980;8.808;2023-04-30T17:11:26;1.92;;;1.77;;
6953;SDS011;3516;47.980;8.808;2023-04-30T17:13:53;1.60;;;1.60;;
6953;SDS011;3516;47.980;8.808;2023-04-30T17:16:21;1.50;;;1.50;;
6953;SDS011;3516;47.980;8.808;2023-04-30T17:18:48;1.75;;;1.65;;
6953;SDS011;3516;47.980;8.808;2023-04-30T17:21:16;1.73;;;1.73;;
6953;SDS011;3516;47.980;8.808;2023-04-30T17:23:43;2.00;;;1.90;;
6953;SDS011;3516;47.980;8.808;2023-04-30T17:26:09;1.83;;;1.60;;
6953;SDS011;3516;47.980;8.808;2023-04-30T17:28:36;2.22;;;2.10;;
6953;SDS011;3516;47.980;8.808;2023-04-30T17:31:03;2.92;;;2.28;;
6953;SDS011;3516;47.980;8.808;2023-04-30T17:33:31;2.17;;;2.05;;
6953;SDS011;3516;47.980;8.808;2023-04-30T17:35:58;2.25;;;2.05;;
6953;SDS011;3516;47.980;8.808;2023-04-30T17:38:26;2.20;;;2.10;;
6953;SDS011;3516;47.980;8.808;2023-04-30T17:40:53;2.95;;;2.10;;
6953;SDS011;3516;47.980;8.808;2023-04-30T17:43:20;2.03;;;1.92;;
6953;SDS011;3516;47.980;8.808;2023-04-30T17:45:47;2.25;;;2.08;;
6953;SDS011;3516;47.980;8.808;2023-04-30T17:48:15;2.00;;;2.00;;
6953;SDS011;3516;47.980;8.808;2023-04-30T17:50:41;1.80;;;1.80;;
6953;SDS011;3516;47.980;8.808;2023-04-30T17:53:09;1.90;;;1.80;;
6953;SDS011;3516;47.980;8.808;2023-04-30T17:55:37;1.88;;;1.63;;
6953;SDS011;3516;47.980;8.808;2023-04-30T17:58:07;1.80;;;1.70;;
6953;SDS011;3516;47.980;8.808;2023-04-30T18:00:36;2.25;;;2.13;;
6953;SDS011;3516;47.980;8.808;2023-04-30T18:03:04;2.70;;;1.83;;
6953;SDS011;3516;47.980;8.808;2023-04-30T18:05:31;2.20;;;2.10;;
6953;SDS011;3516;47.980;8.808;2023-04-30T18:07:58;1.90;;;1.90;;
6953;SDS011;3516;47.980;8.808;2023-04-30T18:10:25;2.35;;;2.15;;
6953;SDS011;3516;47.980;8.808;2023-04-30T18:12:56;1.80;;;1.70;;
6953;SDS011;3516;47.980;8.808;2023-04-30T18:15:23;1.90;;;1.80;;
6953;SDS011;3516;47.980;8.808;2023-04-30T18:17:50;2.17;;;2.08;;
6953;SDS011;3516;47.980;8.808;2023-04-30T18:20:17;1.52;;;1.52;;
6953;SDS011;3516;47.980;8.808;2023-04-30T18:22:43;2.10;;;2.00;;
6953;SDS011;3516;47.980;8.808;2023-04-30T18:25:11;1.77;;;1.67;;
6953;SDS011;3516;47.980;8.808;2023-04-30T18:27:38;1.50;;;1.50;;
6953;SDS011;3516;47.980;8.808;2023-04-30T18:30:07;1.80;;;1.80;;
6953;SDS011;3516;47.980;8.808;2023-04-30T18:32:35;1.85;;;1.80;;
6953;SDS011;3516;47.980;8.808;2023-04-30T18:35:02;2.05;;;1.92;;
6953;SDS011;3516;47.980;8.808;2023-04-30T18:37:29;2.35;;;2.25;;
6953;SDS011;3516;47.980;8.808;2023-04-30T18:39:56;2.47;;;2.28;;
6953;SDS011;3516;47.980;8.808;2023-04-30T18:42:23;2.22;;;2.08;;
6953;SDS011;3516;47.980;8.808;2023-04-30T18:44:49;2.08;;;1.98;;
6953;SDS011;3516;47.980;8.808;2023-04-30T18:47:17;2.30;;;2.20;;
6953;SDS011;3516;47.980;8.808;2023-04-30T18:49:44;1.90;;;1.80;;
6953;SDS011;3516;47.980;8.808;2023-04-30T18:52:11;2.20;;;2.10;;
6953;SDS011;3516;47.980;8.808;2023-04-30T18:54:37;1.98;;;1.88;;
6953;SDS011;3516;47.980;8.808;2023-04-30T18:57:05;2.40;;;2.20;;
6953;SDS011;3516;47.980;8.808;2023-04-30T18:59:34;2.28;;;2.17;;
6953;SDS011;3516;47.980;8.808;2023-04-30T19:02:03;2.90;;;1.90;;
6953;SDS011;3516;47.980;8.808;2023-04-30T19:04:31;1.67;;;1.67;;
6953;SDS011;3516;47.980;8.808;2023-04-30T19:06:57;2.33;;;2.15;;
6953;SDS011;3516;47.980;8.808;2023-04-30T19:09:24;2.30;;;2.10;;
6953;SDS011;3516;47.980;8.808;2023-04-30T19:11:51;2.20;;;2.10;;
6953;SDS011;3516;47.980;8.808;2023-04-30T19:14:18;2.67;;;2.40;;
6953;SDS011;3516;47.980;8.808;2023-04-30T19:16:44;2.42;;;2.33;;
6953;SDS011;3516;47.980;8.808;2023-04-30T19:19:11;2.00;;;1.90;;
6953;SDS011;3516;47.980;8.808;2023-04-30T19:21:39;2.13;;;2.00;;
6953;SDS011;3516;47.980;8.808;2023-04-30T19:24:07;1.95;;;1.85;;
6953;SDS011;3516;47.980;8.808;2023-04-30T19:26:34;2.05;;;1.95;;
6953;SDS011;3516;47.980;8.808;2023-04-30T19:29:01;1.85;;;1.75;;
6953;SDS011;3516;47.980;8.808;2023-04-30T19:31:28;1.80;;;1.80;;
6953;SDS011;3516;47.980;8.808;2023-04-30T19:33:57;1.98;;;1.88;;
6953;SDS011;3516;47.980;8.808;2023-04-30T19:36:25;2.13;;;2.03;;
6953;SDS011;3516;47.980;8.808;2023-04-30T19:38:53;2.70;;;2.60;;
6953;SDS011;3516;47.980;8.808;2023-04-30T19:41:20;2.25;;;2.15;;
6953;SDS011;3516;47.980;8.808;2023-04-30T19:43:47;2.15;;;2.05;;
6953;SDS011;3516;47.980;8.808;2023-04-30T19:46:13;1.58;;;1.58;;
6953;SDS011;3516;47.980;8.808;2023-04-30T19:48:42;1.90;;;1.80;;
6953;SDS011;3516;47.980;8.808;2023-04-30T19:51:09;2.15;;;2.05;;
6953;SDS011;3516;47.980;8.808;2023-04-30T19:53:36;2.17;;;2.03;;
6953;SDS011;3516;47.980;8.808;2023-04-30T19:56:04;2.25;;;2.15;;
6953;SDS011;3516;47.980;8.808;2023-04-30T19:58:31;2.22;;;1.70;;
6953;SDS011;3516;47.980;8.808;2023-04-30T20:00:58;1.90;;;1.83;;
6953;SDS011;3516;47.980;8.808;2023-04-30T20:03:24;2.20;;;2.10;;
6953;SDS011;3516;47.980;8.808;2023-04-30T20:05:51;1.77;;;1.67;;
6953;SDS011;3516;47.980;8.808;2023-04-30T20:08:18;1.80;;;1.70;;
6953;SDS011;3516;47.980;8.808;2023-04-30T20:10:46;2.05;;;1.90;;
6953;SDS011;3516;47.980;8.808;2023-04-30T20:13:15;2.22;;;2.13;;
6953;SDS011;3516;47.980;8.808;2023-04-30T20:15:42;2.47;;;2.38;;
6953;SDS011;3516;47.980;8.808;2023-04-30T20:18:09;2.13;;;2.10;;
6953;SDS011;3516;47.980;8.808;2023-04-30T20:20:36;2.47;;;2.38;;
6953;SDS011;3516;47.980;8.808;2023-04-30T20:23:12;2.28;;;2.17;;
6953;SDS011;3516;47.980;8.808;2023-04-30T20:25:41;2.45;;;2.30;;
6953;SDS011;3516;47.980;8.808;2023-04-30T20:28:09;1.85;;;1.70;;
6953;SDS011;3516;47.980;8.808;2023-04-30T20:30:38;2.42;;;2.03;;
6953;SDS011;3516;47.980;8.808;2023-04-30T20:33:06;2.42;;;2.25;;
6953;SDS011;3516;47.980;8.808;2023-04-30T20:35:33;1.95;;;1.95;;
6953;SDS011;3516;47.980;8.808;2023-04-30T20:38:01;1.73;;;1.73;;
6953;SDS011;3516;47.980;8.808;2023-04-30T20:40:28;2.10;;;2.00;;
6953;SDS011;3516;47.980;8.808;2023-04-30T20:42:54;2.70;;;2.50;;
6953;SDS011;3516;47.980;8.808;2023-04-30T20:45:21;2.03;;;1.92;;
6953;SDS011;3516;47.980;8.808;2023-04-30T20:47:49;2.05;;;2.00;;
6953;SDS011;3516;47.980;8.808;2023-04-30T20:50:16;1.90;;;1.90;;
6953;SDS011;3516;47.980;8.808;2023-04-30T20:52:44;2.00;;;1.90;;
6953;SDS011;3516;47.980;8.808;2023-04-30T20:55:11;1.77;;;1.70;;
6953;SDS011;3516;47.980;8.808;2023-04-30T20:57:38;2.85;;;2.65;;
6953;SDS011;3516;47.980;8.808;2023-04-30T21:00:05;2.28;;;2.17;;
6953;SDS011;3516;47.980;8.808;2023-04-30T21:02:33;2.00;;;1.90;;
6953;SDS011;3516;47.980;8.808;2023-04-30T21:05:01;2.30;;;2.20;;
6953;SDS011;3516;47.980;8.808;2023-04-30T21:07:30;2.38;;;2.28;;
6953;SDS011;3516;47.980;8.808;2023-04-30T21:09:58;1.95;;;1.85;;
6953;SDS011;3516;47.980;8.808;2023-04-30T21:12:25;1.92;;;1.83;;
6953;SDS011;3516;47.980;8.808;2023-04-30T21:14:52;2.13;;;2.03;;
6953;SDS011;3516;47.980;8.808;2023-04-30T21:17:19;2.25;;;2.15;;
6953;SDS011;3516;47.980;8.808;2023-04-30T21:19:46;1.95;;;1.95;;
6953;SDS011;3516;47.980;8.808;2023-04-30T21:22:14;1.40;;;1.40;;
6953;SDS011;3516;47.980;8.808;2023-04-30T21:24:40;1.98;;;1.88;;
6953;SDS011;3516;47.980;8.808;2023-04-30T21:27:07;1.80;;;1.75;;
6953;SDS011;3516;47.980;8.808;2023-04-30T21:29:34;1.75;;;1.75;;
6953;SDS011;3516;47.980;8.808;2023-04-30T21:32:01;1.70;;;1.70;;
6953;SDS011;3516;47.980;8.808;2023-04-30T21:34:28;1.50;;;1.50;;
6953;SDS011;3516;47.980;8.808;2023-04-30T21:36:56;1.80;;;1.75;;
6953;SDS011;3516;47.980;8.808;2023-04-30T21:39:25;1.58;;;1.58;;
6953;SDS011;3516;47.980;8.808;2023-04-30T21:41:52;1.77;;;1.67;;
6953;SDS011;3516;47.980;8.808;2023-04-30T21:44:19;1.42;;;1.42;;
6953;SDS011;3516;47.980;8.808;2023-04-30T21:46:45;1.65;;;1.60;;
6953;SDS011;3516;47.980;8.808;2023-04-30T21:49:13;2.28;;;1.92;;
6953;SDS011;3516;47.980;8.808;2023-04-30T21:51:40;1.48;;;1.48;;
6953;SDS011;3516;47.980;8.808;2023-04-30T21:54:07;1.63;;;1.63;;
6953;SDS011;3516;47.980;8.808;2023-04-30T21:56:35;1.35;;;1.35;;
6953;SDS011;3516;47.980;8.808;2023-04-30T21:59:02;1.40;;;1.40;;
6953;SDS011;3516;47.980;8.808;2023-04-30T22:01:28;1.73;;;1.73;;
6953;SDS011;3516;47.980;8.808;2023-04-30T22:03:55;1.50;;;1.50;;
6953;SDS011;3516;47.980;8.808;2023-04-30T22:06:22;3.20;;;1.70;;
6953;SDS011;3516;47.980;8.808;2023-04-30T22:08:49;1.65;;;1.65;;
6953;SDS011;3516;47.980;8.808;2023-04-30T22:11:16;1.63;;;1.63;;
6953;SDS011;3516;47.980;8.808;2023-04-30T22:13:44;1.80;;;1.70;;
6953;SDS011;3516;47.980;8.808;2023-04-30T22:16:11;1.58;;;1.58;;
6953;SDS011;3516;47.980;8.808;2023-04-30T22:18:37;1.70;;;1.60;;
6953;SDS011;3516;47.980;8.808;2023-04-30T22:21:04;1.80;;;1.70;;
6953;SDS011;3516;47.980;8.808;2023-04-30T22:23:31;1.80;;;1.80;;
6953;SDS011;3516;47.980;8.808;2023-04-30T22:25:58;1.20;;;1.20;;
6953;SDS011;3516;47.980;8.808;2023-04-30T22:28:25;1.60;;;1.60;;
6953;SDS011;3516;47.980;8.808;2023-04-30T22:30:57;1.50;;;1.50;;
6953;SDS011;3516;47.980;8.808;2023-04-30T22:33:24;1.60;;;1.60;;
6953;SDS011;3516;47.980;8.808;2023-04-30T22:35:51;1.83;;;1.73;;
6953;SDS011;3516;47.980;8.808;2023-04-30T22:38:18;1.60;;;1.60;;
6953;SDS011;3516;47.980;8.808;2023-04-30T22:40:45;1.48;;;1.48;;
6953;SDS011;3516;47.980;8.808;2023-04-30T22:43:11;1.42;;;1.42;;
6953;SDS011;3516;47.980;8.808;2023-04-30T22:45:39;1.30;;;1.30;;
6953;SDS011;3516;47.980;8.808;2023-04-30T22:48:07;1.42;;;1.42;;
6953;SDS011;3516;47.980;8.808;2023-04-30T22:50:34;1.33;;;1.33;;
6953;SDS011;3516;47.980;8.808;2023-04-30T22:53:01;1.25;;;1.25;;
6953;SDS011;3516;47.980;8.808;2023-04-30T22:55:29;1.70;;;1.70;;
6953;SDS011;3516;47.980;8.808;2023-04-30T22:57:55;1.63;;;1.63;;
6953;SDS011;3516;47.980;8.808;2023-04-30T23:00:23;1.70;;;1.60;;
6953;SDS011;3516;47.980;8.808;2023-04-30T23:02:50;1.42;;;1.42;;
6953;SDS011;3516;47.980;8.808;2023-04-30T23:05:19;1.75;;;1.67;;
6953;SDS011;3516;47.980;8.808;2023-04-30T23:07:45;1.90;;;1.80;;
6953;SDS011;3516;47.980;8.808;2023-04-30T23:10:13;1.58;;;1.50;;
6953;SDS011;3516;47.980;8.808;2023-04-30T23:12:40;2.13;;;2.03;;
6953;SDS011;3516;47.980;8.808;2023-04-30T23:15:07;1.63;;;1.63;;
6953;SDS011;3516;47.980;8.808;2023-04-30T23:17:34;1.73;;;1.65;;
6953;SDS011;3516;47.980;8.808;2023-04-30T23:20:00;2.15;;;2.00;;
6953;SDS011;3516;47.980;8.808;2023-04-30T23:22:29;1.55;;;1.55;;
6953;SDS011;3516;47.980;8.808;2023-04-30T23:24:56;1.52;;;1.52;;
6953;SDS011;3516;47.980;8.808;2023-04-30T23:27:23;1.60;;;1.60;;
6953;SDS011;3516;47.980;8.808;2023-04-30T23:29:52;1.65;;;1.65;;
6953;SDS011;3516;47.980;8.808;2023-04-30T23:32:19;1.63;;;1.60;;
